Time;durP1;ratioP1;P1;durP2;ratioP2;P2;SDS_P1;SDS_P2;PMS_P1;PMS_P2;Temp;Humidity;BMP_temperature;BMP_pressure;BME280_temperature;BME280_humidity;BME280_pressure;Samples;Min_cycle;Max_cycle;Signal;HPM_P1;HPM_P2
2023/03/21 00:01:53;;;;;;;18.83;13.60;;;;;;;;;;5053672;28;20057;-60
2023/03/21 00:04:21;;;;;;;18.70;14.02;;;;;;;;;;5047268;28;20538;-60
2023/03/21 00:06:47;;;;;;;19.88;14.38;;;;;;;;;;5064287;28;20147;-61
2023/03/21 00:09:14;;;;;;;20.48;14.40;;;;;;;;;;5079617;28;20077;-60
2023/03/21 00:11:40;;;;;;;20.30;14.15;;;;;;;;;;5057332;28;20045;-59
2023/03/21 00:14:07;;;;;;;20.85;14.10;;;;;;;;;;5054664;28;20132;-60
2023/03/21 00:16:35;;;;;;;19.42;13.80;;;;;;;;;;5063027;28;20052;-61
2023/03/21 00:19:05;;;;;;;20.90;14.45;;;;;;;;;;5047839;28;20648;-61
2023/03/21 00:21:32;;;;;;;24.60;14.85;;;;;;;;;;5049428;28;20091;-60
2023/03/21 00:24:18;;;;;;;20.10;14.40;;;;;;;;;;5070279;28;20068;-59
2023/03/21 00:26:44;;;;;;;21.38;14.90;;;;;;;;;;5064626;28;20049;-59
2023/03/21 00:29:11;;;;;;;21.48;13.60;;;;;;;;;;5065303;28;20056;-61
2023/03/21 00:31:37;;;;;;;18.52;13.25;;;;;;;;;;5071479;28;20061;-60
2023/03/21 00:34:04;;;;;;;17.15;12.98;;;;;;;;;;5053822;28;20507;-59
2023/03/21 00:36:30;;;;;;;19.02;11.68;;;;;;;;;;5057648;28;20534;-60
2023/03/21 00:38:59;;;;;;;23.98;12.88;;;;;;;;;;5065379;28;20055;-59
2023/03/21 00:41:26;;;;;;;16.73;12.63;;;;;;;;;;5064874;28;20440;-60
2023/03/21 00:44:07;;;;;;;19.63;12.10;;;;;;;;;;5058368;28;20170;-61
2023/03/21 00:46:34;;;;;;;22.08;12.90;;;;;;;;;;5072781;28;20045;-60
2023/03/21 00:49:14;;;;;;;16.85;11.30;;;;;;;;;;5052845;28;20110;-62
2023/03/21 00:51:42;;;;;;;18.73;12.20;;;;;;;;;;5062724;28;20068;-59
2023/03/21 00:54:10;;;;;;;18.60;11.40;;;;;;;;;;5049143;28;20586;-61
2023/03/21 00:56:37;;;;;;;18.08;12.35;;;;;;;;;;5061125;28;20478;-60
2023/03/21 00:59:03;;;;;;;17.90;12.75;;;;;;;;;;5044315;28;20053;-59
2023/03/21 01:01:33;;;;;;;20.08;13.38;;;;;;;;;;5044955;28;20050;-59
2023/03/21 01:04:04;;;;;;;17.35;12.35;;;;;;;;;;5044715;28;20064;-60
2023/03/21 01:06:31;;;;;;;20.80;12.25;;;;;;;;;;5070885;28;20048;-60
2023/03/21 01:08:58;;;;;;;19.42;13.13;;;;;;;;;;5048795;28;20045;-60
2023/03/21 01:11:26;;;;;;;18.02;12.15;;;;;;;;;;5044600;28;20104;-62
2023/03/21 01:13:53;;;;;;;17.65;12.23;;;;;;;;;;5058202;28;20537;-59
2023/03/21 01:16:32;;;;;;;18.67;12.43;;;;;;;;;;5046770;28;20401;-59
2023/03/21 01:18:59;;;;;;;19.10;12.75;;;;;;;;;;5051272;28;20049;-61
2023/03/21 01:21:27;;;;;;;17.05;12.10;;;;;;;;;;5072463;28;20084;-60
2023/03/21 01:23:53;;;;;;;17.27;13.38;;;;;;;;;;5067162;28;20529;-61
2023/03/21 01:26:20;;;;;;;20.83;14.93;;;;;;;;;;5065725;28;20056;-61
2023/03/21 01:28:46;;;;;;;18.98;13.32;;;;;;;;;;5050864;28;20238;-59
2023/03/21 01:31:13;;;;;;;21.73;14.25;;;;;;;;;;5048384;28;20092;-61
2023/03/21 01:33:40;;;;;;;23.30;14.52;;;;;;;;;;5063119;28;20507;-61
2023/03/21 01:36:06;;;;;;;24.67;15.35;;;;;;;;;;5063882;28;20053;-59
2023/03/21 01:38:39;;;;;;;20.95;14.68;;;;;;;;;;5064047;28;20071;-59
2023/03/21 01:41:06;;;;;;;23.77;16.63;;;;;;;;;;5063140;28;20071;-60
2023/03/21 01:43:44;;;;;;;22.98;15.93;;;;;;;;;;5058003;28;20060;-60
2023/03/21 01:46:20;;;;;;;22.63;15.63;;;;;;;;;;5048038;28;20059;-60
2023/03/21 01:48:46;;;;;;;;;;;;;;;;;;5067109;28;20821;-59
2023/03/21 01:51:12;;;;;;;27.23;16.85;;;;;;;;;;5072257;28;46468;-60
2023/03/21 01:53:40;;;;;;;23.45;16.42;;;;;;;;;;5051423;28;20080;-60
2023/03/21 01:56:15;;;;;;;25.50;17.27;;;;;;;;;;5049472;28;20144;-60
2023/03/21 01:58:42;;;;;;;22.45;15.70;;;;;;;;;;5048295;28;20060;-60
2023/03/21 02:01:09;;;;;;;23.52;15.88;;;;;;;;;;5047718;28;20492;-60
2023/03/21 02:03:48;;;;;;;30.10;17.63;;;;;;;;;;5047560;28;20638;-60
2023/03/21 02:06:21;;;;;;;26.55;17.25;;;;;;;;;;5064781;28;20048;-60
2023/03/21 02:08:47;;;;;;;30.00;18.65;;;;;;;;;;5066327;28;20144;-59
2023/03/21 02:11:15;;;;;;;27.75;18.50;;;;;;;;;;5065605;28;20045;-60
2023/03/21 02:13:41;;;;;;;31.13;19.25;;;;;;;;;;5050200;28;20043;-59
2023/03/21 02:16:28;;;;;;;30.55;19.35;;;;;;;;;;5066862;28;20053;-61
2023/03/21 02:19:13;;;;;;;31.20;19.65;;;;;;;;;;5042891;28;20143;-60
2023/03/21 02:22:04;;;;;;;33.53;19.75;;;;;;;;;;5058807;28;20510;-61
2023/03/21 02:24:49;;;;;;;31.00;19.05;;;;;;;;;;5066914;28;20148;-60
2023/03/21 02:27:30;;;;;;;28.77;19.48;;;;;;;;;;5050325;28;20051;-61
2023/03/21 02:30:16;;;;;;;31.20;19.55;;;;;;;;;;5075594;28;20064;-60
2023/03/21 02:33:13;;;;;;;28.23;18.65;;;;;;;;;;5065660;28;20556;-60
2023/03/21 02:35:48;;;;;;;28.55;19.67;;;;;;;;;;5071890;28;20051;-60
2023/03/21 02:38:26;;;;;;;28.50;18.63;;;;;;;;;;5057260;28;20103;-61
2023/03/21 02:41:03;;;;;;;34.85;18.65;;;;;;;;;;5067125;28;20427;-60
2023/03/21 02:43:43;;;;;;;38.33;19.88;;;;;;;;;;5063108;28;20046;-60
2023/03/21 02:46:19;;;;;;;30.73;18.90;;;;;;;;;;5061152;28;20084;-60
2023/03/21 02:48:51;;;;;;;35.15;21.08;;;;;;;;;;5065646;28;20136;-59
2023/03/21 02:51:20;;;;;;;34.10;20.10;;;;;;;;;;5067209;28;20884;-60
2023/03/21 02:53:52;;;;;;;35.80;19.85;;;;;;;;;;5066964;28;20053;-60
2023/03/21 02:56:39;;;;;;;34.42;21.17;;;;;;;;;;5059396;28;20054;-60
2023/03/21 02:59:06;;;;;;;32.47;19.38;;;;;;;;;;5057312;28;20092;-60
2023/03/21 03:01:32;;;;;;;35.47;19.15;;;;;;;;;;5063300;28;20569;-60
2023/03/21 03:03:59;;;;;;;33.38;20.45;;;;;;;;;;5061923;28;20141;-60
2023/03/21 03:06:45;;;;;;;34.42;18.83;;;;;;;;;;5047493;28;20049;-59
2023/03/21 03:09:23;;;;;;;42.83;22.05;;;;;;;;;;5081840;28;20049;-60
2023/03/21 03:11:53;;;;;;;32.72;18.98;;;;;;;;;;5052357;28;20409;-61
2023/03/21 03:14:38;;;;;;;30.88;20.52;;;;;;;;;;5046106;28;20121;-61
2023/03/21 03:17:28;;;;;;;29.00;18.25;;;;;;;;;;5057608;28;20081;-60
2023/03/21 03:20:05;;;;;;;33.92;18.65;;;;;;;;;;5068898;28;20064;-61
2023/03/21 03:22:47;;;;;;;35.13;17.98;;;;;;;;;;5061739;28;20096;-59
2023/03/21 03:25:17;;;;;;;28.48;17.13;;;;;;;;;;5057438;28;20045;-59
2023/03/21 03:27:53;;;;;;;29.98;16.50;;;;;;;;;;5058979;28;20922;-61
2023/03/21 03:30:19;;;;;;;28.52;16.10;;;;;;;;;;5065881;28;20053;-60
2023/03/21 03:32:52;;;;;;;26.67;14.65;;;;;;;;;;5061855;28;20577;-60
2023/03/21 03:35:20;;;;;;;26.38;14.93;;;;;;;;;;5068745;28;20053;-60
2023/03/21 03:37:48;;;;;;;23.20;15.27;;;;;;;;;;5064967;28;20140;-60
2023/03/21 03:40:17;;;;;;;27.30;14.60;;;;;;;;;;5065741;28;20060;-61
2023/03/21 03:42:50;;;;;;;27.83;14.18;;;;;;;;;;5054030;28;20057;-60
2023/03/21 03:45:17;;;;;;;24.58;14.70;;;;;;;;;;5045691;28;20168;-60
2023/03/21 03:47:49;;;;;;;20.95;13.27;;;;;;;;;;5055651;28;20058;-59
2023/03/21 03:50:27;;;;;;;19.75;12.10;;;;;;;;;;5068997;28;20060;-61
2023/03/21 03:52:56;;;;;;;19.30;12.35;;;;;;;;;;5052370;28;20463;-60
2023/03/21 03:55:26;;;;;;;22.10;12.70;;;;;;;;;;5052841;28;20049;-59
2023/03/21 03:57:54;;;;;;;23.15;12.93;;;;;;;;;;5053165;28;20508;-60
2023/03/21 04:00:20;;;;;;;20.70;13.15;;;;;;;;;;5048564;28;20071;-60
2023/03/21 04:02:46;;;;;;;21.60;12.55;;;;;;;;;;5067993;28;20146;-60
2023/03/21 04:05:13;;;;;;;21.25;12.73;;;;;;;;;;5064973;28;20060;-59
2023/03/21 04:07:40;;;;;;;24.13;13.65;;;;;;;;;;5053014;28;20065;-60
2023/03/21 04:10:07;;;;;;;22.00;13.23;;;;;;;;;;5045922;28;20145;-60
2023/03/21 04:12:33;;;;;;;23.75;13.75;;;;;;;;;;5059677;28;20079;-61
2023/03/21 04:14:59;;;;;;;23.77;14.65;;;;;;;;;;5045743;28;20049;-61
2023/03/21 04:17:38;;;;;;;28.23;15.18;;;;;;;;;;5050518;28;20052;-60
2023/03/21 04:20:06;;;;;;;29.27;15.65;;;;;;;;;;5064875;28;20053;-60
2023/03/21 04:22:42;;;;;;;25.92;14.55;;;;;;;;;;5060617;28;20108;-59
2023/03/21 04:25:08;;;;;;;29.00;16.88;;;;;;;;;;5045583;28;20535;-60
2023/03/21 04:27:35;;;;;;;30.95;16.63;;;;;;;;;;5047370;28;20606;-60
2023/03/21 04:30:02;;;;;;;29.17;17.45;;;;;;;;;;5057094;28;20057;-60
2023/03/21 04:32:32;;;;;;;33.15;19.35;;;;;;;;;;5068433;28;20057;-59
2023/03/21 04:34:59;;;;;;;29.52;17.75;;;;;;;;;;5064680;28;20049;-59
2023/03/21 04:37:26;;;;;;;35.83;19.45;;;;;;;;;;5065020;28;20486;-60
2023/03/21 04:39:53;;;;;;;31.88;17.50;;;;;;;;;;5063898;28;20194;-59
2023/03/21 04:42:19;;;;;;;37.05;19.92;;;;;;;;;;5054610;28;20049;-60
2023/03/21 04:44:46;;;;;;;31.02;20.25;;;;;;;;;;5044820;28;20049;-61
2023/03/21 04:47:14;;;;;;;31.98;20.63;;;;;;;;;;5069384;28;20067;-60
2023/03/21 04:49:42;;;;;;;35.45;21.63;;;;;;;;;;5063610;28;20475;-60
2023/03/21 04:52:08;;;;;;;41.10;21.92;;;;;;;;;;5057760;28;20132;-60
2023/03/21 04:54:34;;;;;;;37.65;22.17;;;;;;;;;;5046822;28;20695;-60
2023/03/21 04:57:01;;;;;;;41.50;21.95;;;;;;;;;;5055531;28;20539;-60
2023/03/21 04:59:27;;;;;;;37.03;21.08;;;;;;;;;;5045411;28;20087;-60
2023/03/21 05:01:55;;;;;;;37.53;22.23;;;;;;;;;;5066502;28;20063;-62
2023/03/21 05:04:22;;;;;;;36.58;21.52;;;;;;;;;;5047658;28;20529;-61
2023/03/21 05:06:48;;;;;;;39.30;21.70;;;;;;;;;;5063778;28;20057;-60
2023/03/21 05:09:14;;;;;;;32.63;20.35;;;;;;;;;;5047769;28;20081;-60
2023/03/21 05:11:41;;;;;;;31.92;16.92;;;;;;;;;;5049929;28;20056;-61
2023/03/21 05:14:09;;;;;;;28.10;16.40;;;;;;;;;;5065673;28;20104;-60
2023/03/21 05:16:37;;;;;;;30.90;17.30;;;;;;;;;;5085286;28;20165;-61
2023/03/21 05:19:03;;;;;;;29.90;16.70;;;;;;;;;;5084882;28;20049;-60
2023/03/21 05:21:40;;;;;;;30.73;15.43;;;;;;;;;;5064298;28;20124;-60
2023/03/21 05:24:11;;;;;;;31.67;17.00;;;;;;;;;;5064251;28;20048;-60
2023/03/21 05:26:38;;;;;;;29.13;15.13;;;;;;;;;;5064360;28;20504;-59
2023/03/21 05:29:04;;;;;;;29.65;15.98;;;;;;;;;;5066329;28;20070;-60
2023/03/21 05:31:31;;;;;;;26.83;15.20;;;;;;;;;;5077580;28;20436;-60
2023/03/21 05:33:58;;;;;;;30.00;14.65;;;;;;;;;;5063417;28;20045;-60
2023/03/21 05:36:24;;;;;;;32.50;15.95;;;;;;;;;;5047082;28;21984;-60
2023/03/21 05:38:50;;;;;;;24.30;15.70;;;;;;;;;;5065089;28;20085;-59
2023/03/21 05:41:17;;;;;;;35.45;16.70;;;;;;;;;;5054730;28;20561;-59
2023/03/21 05:43:44;;;;;;;24.85;14.93;;;;;;;;;;5063923;28;20491;-59
2023/03/21 05:46:11;;;;;;;34.38;16.95;;;;;;;;;;5082544;28;20508;-60
2023/03/21 05:48:38;;;;;;;28.30;15.68;;;;;;;;;;5063479;28;21174;-59
2023/03/21 05:51:04;;;;;;;32.25;16.05;;;;;;;;;;5064172;28;20045;-60
2023/03/21 05:53:30;;;;;;;28.05;15.07;;;;;;;;;;5063065;28;20434;-60
2023/03/21 05:55:57;;;;;;;30.92;15.80;;;;;;;;;;5080529;28;20537;-60
2023/03/21 05:58:23;;;;;;;24.48;13.95;;;;;;;;;;5063688;28;20083;-60
2023/03/21 06:00:50;;;;;;;32.53;15.80;;;;;;;;;;5061783;28;20046;-59
2023/03/21 06:03:16;;;;;;;28.55;14.95;;;;;;;;;;5067695;28;20563;-61
2023/03/21 06:05:42;;;;;;;33.13;15.00;;;;;;;;;;5073106;28;20102;-60
2023/03/21 06:08:09;;;;;;;28.63;14.35;;;;;;;;;;5067819;28;20059;-61
2023/03/21 06:10:35;;;;;;;26.90;14.13;;;;;;;;;;5063375;28;20052;-59
2023/03/21 06:13:02;;;;;;;29.90;15.45;;;;;;;;;;5077675;28;20044;-59
2023/03/21 06:15:28;;;;;;;29.60;15.18;;;;;;;;;;5086787;28;20139;-59
2023/03/21 06:17:54;;;;;;;23.88;14.00;;;;;;;;;;5080284;28;20048;-60
2023/03/21 06:20:21;;;;;;;29.55;15.13;;;;;;;;;;5081843;28;20088;-59
2023/03/21 06:22:47;;;;;;;21.02;13.48;;;;;;;;;;5069090;28;20053;-60
2023/03/21 06:25:14;;;;;;;24.65;14.32;;;;;;;;;;5066872;28;20514;-60
2023/03/21 06:27:40;;;;;;;25.92;13.80;;;;;;;;;;5055171;28;20511;-60
2023/03/21 06:30:07;;;;;;;25.75;13.90;;;;;;;;;;5060554;28;20057;-60
2023/03/21 06:32:33;;;;;;;27.52;13.63;;;;;;;;;;5060704;28;20558;-60
2023/03/21 06:35:00;;;;;;;24.80;12.73;;;;;;;;;;5056227;28;20051;-59
2023/03/21 06:37:26;;;;;;;26.30;13.35;;;;;;;;;;5070096;28;20057;-60
2023/03/21 06:39:52;;;;;;;24.10;12.82;;;;;;;;;;5059895;28;20053;-61
2023/03/21 06:42:20;;;;;;;27.52;14.02;;;;;;;;;;5058682;28;20137;-60
2023/03/21 06:44:47;;;;;;;23.35;12.68;;;;;;;;;;5064613;28;20057;-59
2023/03/21 06:47:13;;;;;;;23.98;13.77;;;;;;;;;;5050599;28;20052;-61
2023/03/21 06:49:41;;;;;;;24.17;13.02;;;;;;;;;;5063135;28;20052;-60
2023/03/21 06:52:08;;;;;;;18.42;11.70;;;;;;;;;;5057626;28;20139;-61
2023/03/21 06:54:35;;;;;;;26.77;12.38;;;;;;;;;;5062871;28;20060;-60
2023/03/21 06:57:02;;;;;;;27.70;12.27;;;;;;;;;;5073473;28;20148;-59
2023/03/21 06:59:28;;;;;;;30.30;12.35;;;;;;;;;;5061866;28;20516;-61
2023/03/21 07:01:55;;;;;;;20.67;12.07;;;;;;;;;;5061367;28;20136;-61
2023/03/21 07:04:21;;;;;;;24.02;11.90;;;;;;;;;;5062538;28;20128;-60
2023/03/21 07:06:48;;;;;;;22.42;11.65;;;;;;;;;;5064496;28;20049;-59
2023/03/21 07:09:16;;;;;;;23.08;11.15;;;;;;;;;;5069111;28;20055;-60
2023/03/21 07:11:42;;;;;;;21.77;11.10;;;;;;;;;;5064018;28;20060;-60
2023/03/21 07:14:09;;;;;;;23.35;12.45;;;;;;;;;;5061065;28;20977;-60
2023/03/21 07:16:35;;;;;;;26.20;13.07;;;;;;;;;;5050018;28;20056;-61
2023/03/21 07:19:02;;;;;;;24.40;11.95;;;;;;;;;;5056379;28;20053;-60
2023/03/21 07:21:28;;;;;;;21.90;11.43;;;;;;;;;;5050781;28;20060;-61
2023/03/21 07:23:55;;;;;;;22.77;11.82;;;;;;;;;;5059618;28;20156;-60
2023/03/21 07:26:21;;;;;;;21.90;11.25;;;;;;;;;;5063707;28;20106;-60
2023/03/21 07:28:48;;;;;;;22.77;11.07;;;;;;;;;;5066526;28;20057;-61
2023/03/21 07:31:15;;;;;;;25.95;11.88;;;;;;;;;;5051039;28;20083;-61
2023/03/21 07:33:42;;;;;;;21.85;11.60;;;;;;;;;;5062383;28;20053;-60
2023/03/21 07:36:10;;;;;;;20.40;10.48;;;;;;;;;;5064934;28;20062;-60
2023/03/21 07:38:36;;;;;;;27.48;11.40;;;;;;;;;;5067151;28;20052;-60
2023/03/21 07:41:03;;;;;;;19.63;10.10;;;;;;;;;;5068462;28;20057;-59
2023/03/21 07:43:29;;;;;;;23.00;10.73;;;;;;;;;;5061999;28;20136;-60
2023/03/21 07:45:56;;;;;;;27.83;11.45;;;;;;;;;;5062338;28;20079;-60
2023/03/21 07:48:23;;;;;;;19.23;9.85;;;;;;;;;;5062628;28;20048;-61
2023/03/21 07:50:49;;;;;;;17.23;9.25;;;;;;;;;;5070209;28;20136;-60
2023/03/21 07:53:16;;;;;;;14.50;9.63;;;;;;;;;;5062962;28;20522;-59
2023/03/21 07:55:42;;;;;;;21.02;10.30;;;;;;;;;;5063265;28;20096;-60
2023/03/21 07:58:08;;;;;;;21.38;9.52;;;;;;;;;;5061556;28;20059;-60
2023/03/21 08:00:35;;;;;;;20.95;9.45;;;;;;;;;;5065530;28;20572;-61
2023/03/21 08:03:02;;;;;;;24.17;10.80;;;;;;;;;;5066120;28;20059;-60
2023/03/21 08:05:32;;;;;;;17.55;9.95;;;;;;;;;;5068996;28;20064;-60
2023/03/21 08:07:59;;;;;;;19.83;9.90;;;;;;;;;;5063092;28;20049;-61
2023/03/21 08:10:25;;;;;;;19.42;10.57;;;;;;;;;;5060275;28;20053;-61
2023/03/21 08:12:52;;;;;;;18.92;9.18;;;;;;;;;;5071868;28;20053;-60
2023/03/21 08:15:18;;;;;;;23.65;10.40;;;;;;;;;;5069266;28;20065;-61
2023/03/21 08:17:45;;;;;;;20.25;10.30;;;;;;;;;;5059160;28;20514;-60
2023/03/21 08:20:13;;;;;;;26.25;11.95;;;;;;;;;;5062819;28;20126;-60
2023/03/21 08:22:40;;;;;;;18.85;9.75;;;;;;;;;;5063768;28;20045;-61
2023/03/21 08:25:07;;;;;;;24.65;10.40;;;;;;;;;;5069180;28;20131;-60
2023/03/21 08:27:34;;;;;;;21.25;11.02;;;;;;;;;;5062725;28;20088;-61
2023/03/21 08:30:00;;;;;;;22.42;10.93;;;;;;;;;;5061725;28;20412;-60
2023/03/21 08:32:29;;;;;;;18.08;10.18;;;;;;;;;;5059152;28;20053;-61
2023/03/21 08:34:59;;;;;;;15.75;9.40;;;;;;;;;;5057317;28;20104;-60
2023/03/21 08:37:26;;;;;;;20.63;10.80;;;;;;;;;;5065666;28;20546;-61
2023/03/21 08:39:52;;;;;;;19.48;10.05;;;;;;;;;;5062293;28;20049;-60
2023/03/21 08:42:20;;;;;;;18.30;9.55;;;;;;;;;;5060864;28;20436;-60
2023/03/21 08:44:46;;;;;;;20.77;8.98;;;;;;;;;;5067038;28;20055;-60
2023/03/21 08:47:13;;;;;;;18.75;10.10;;;;;;;;;;5062442;28;20069;-59
2023/03/21 08:49:40;;;;;;;13.98;9.10;;;;;;;;;;5062042;28;20107;-60
2023/03/21 08:52:06;;;;;;;19.92;9.43;;;;;;;;;;5068719;28;20055;-60
2023/03/21 08:54:33;;;;;;;19.38;10.00;;;;;;;;;;5060309;28;20907;-60
2023/03/21 08:56:59;;;;;;;17.98;9.38;;;;;;;;;;5068744;28;20052;-59
2023/03/21 08:59:26;;;;;;;17.88;8.82;;;;;;;;;;5062244;28;20060;-60
2023/03/21 09:01:52;;;;;;;21.63;9.60;;;;;;;;;;5065882;28;20131;-61
2023/03/21 09:04:19;;;;;;;16.30;9.20;;;;;;;;;;5062501;28;20080;-60
2023/03/21 09:06:47;;;;;;;22.35;9.40;;;;;;;;;;5061153;28;20068;-60
2023/03/21 09:09:14;;;;;;;14.10;8.82;;;;;;;;;;5061366;28;20056;-60
2023/03/21 09:11:41;;;;;;;17.45;8.25;;;;;;;;;;5060901;28;20058;-61
2023/03/21 09:14:08;;;;;;;14.38;7.20;;;;;;;;;;5060704;28;20132;-61
2023/03/21 09:16:34;;;;;;;19.70;7.10;;;;;;;;;;5055836;28;20053;-61
2023/03/21 09:19:03;;;;;;;20.08;8.43;;;;;;;;;;5059157;28;20057;-62
2023/03/21 09:21:30;;;;;;;16.55;7.68;;;;;;;;;;5060682;28;20049;-61
2023/03/21 09:23:58;;;;;;;13.85;7.05;;;;;;;;;;5060766;28;20050;-61
2023/03/21 09:26:26;;;;;;;11.05;7.43;;;;;;;;;;5073576;28;20135;-61
2023/03/21 09:28:53;;;;;;;14.38;7.28;;;;;;;;;;5062582;28;20138;-59
2023/03/21 09:31:21;;;;;;;15.85;7.30;;;;;;;;;;5078123;28;20076;-60
2023/03/21 09:33:48;;;;;;;14.13;6.78;;;;;;;;;;5063229;28;20068;-61
2023/03/21 09:36:17;;;;;;;13.05;7.20;;;;;;;;;;5069361;28;20118;-60
2023/03/21 09:38:45;;;;;;;15.80;7.43;;;;;;;;;;5075923;28;20079;-61
2023/03/21 09:41:32;;;;;;;18.95;7.85;;;;;;;;;;5068880;28;20057;-61
2023/03/21 09:44:02;;;;;;;16.95;8.00;;;;;;;;;;5054817;28;20077;-62
2023/03/21 09:46:34;;;;;;;15.52;7.30;;;;;;;;;;5066911;28;20052;-62
2023/03/21 09:49:06;;;;;;;12.90;6.95;;;;;;;;;;5072616;28;20515;-61
2023/03/21 09:51:39;;;;;;;14.43;6.78;;;;;;;;;;5055700;28;20089;-60
2023/03/21 09:54:10;;;;;;;16.08;6.82;;;;;;;;;;5044070;28;20045;-60
2023/03/21 09:56:39;;;;;;;18.38;7.68;;;;;;;;;;5061006;28;20103;-61
2023/03/21 09:59:07;;;;;;;18.45;8.05;;;;;;;;;;5060021;28;20573;-61
2023/03/21 10:01:40;;;;;;;12.15;6.13;;;;;;;;;;5064231;28;20160;-60
2023/03/21 10:04:10;;;;;;;16.70;8.13;;;;;;;;;;5054960;28;20057;-62
2023/03/21 10:06:39;;;;;;;16.27;8.18;;;;;;;;;;5059721;28;20131;-67
2023/03/21 10:09:08;;;;;;;19.23;7.95;;;;;;;;;;5062425;28;20527;-61
2023/03/21 10:11:40;;;;;;;18.67;7.50;;;;;;;;;;5055043;28;20057;-61
2023/03/21 10:14:11;;;;;;;15.10;7.43;;;;;;;;;;5075670;28;20640;-60
2023/03/21 10:16:43;;;;;;;16.48;7.38;;;;;;;;;;5061397;28;20044;-60
2023/03/21 10:19:15;;;;;;;13.10;7.70;;;;;;;;;;5058410;28;20059;-60
2023/03/21 10:21:45;;;;;;;15.98;7.35;;;;;;;;;;5053145;28;20053;-61
2023/03/21 10:24:31;;;;;;;13.10;7.20;;;;;;;;;;5064001;28;20110;-62
2023/03/21 10:26:58;;;;;;;13.07;7.10;;;;;;;;;;5059657;28;20463;-62
2023/03/21 10:29:30;;;;;;;12.20;8.05;;;;;;;;;;5059189;28;20088;-61
2023/03/21 10:31:57;;;;;;;22.15;8.20;;;;;;;;;;5051060;28;20061;-60
2023/03/21 10:34:30;;;;;;;15.95;9.15;;;;;;;;;;5055451;28;20549;-61
2023/03/21 10:36:56;;;;;;;11.77;6.80;;;;;;;;;;5062144;28;20490;-61
2023/03/21 10:39:26;;;;;;;20.20;7.70;;;;;;;;;;5062032;28;20494;-61
2023/03/21 10:41:52;;;;;;;10.55;6.60;;;;;;;;;;5060459;28;20055;-61
2023/03/21 10:44:19;;;;;;;9.70;6.45;;;;;;;;;;5064916;28;20048;-61
2023/03/21 10:46:53;;;;;;;9.50;5.95;;;;;;;;;;5068005;28;20107;-61
2023/03/21 10:49:24;;;;;;;18.38;7.15;;;;;;;;;;5061653;28;20050;-60
2023/03/21 10:51:52;;;;;;;13.95;7.57;;;;;;;;;;5066286;28;20056;-61
2023/03/21 10:54:20;;;;;;;14.50;6.38;;;;;;;;;;5064834;28;20228;-60
2023/03/21 10:56:55;;;;;;;13.80;6.72;;;;;;;;;;5062002;28;20592;-61
2023/03/21 10:59:22;;;;;;;13.68;8.15;;;;;;;;;;5065177;28;20550;-61
2023/03/21 11:01:50;;;;;;;12.48;7.00;;;;;;;;;;5063343;28;20068;-62
2023/03/21 11:04:21;;;;;;;13.25;6.43;;;;;;;;;;5062770;28;20055;-61
2023/03/21 11:06:59;;;;;;;13.68;7.45;;;;;;;;;;5063012;28;20594;-61
2023/03/21 11:09:41;;;;;;;14.60;6.22;;;;;;;;;;5069939;28;20053;-60
2023/03/21 11:12:31;;;;;;;9.68;6.18;;;;;;;;;;5065937;28;20049;-61
2023/03/21 11:15:12;;;;;;;12.57;6.93;;;;;;;;;;5047763;28;20053;-61
2023/03/21 11:17:39;;;;;;;11.55;6.28;;;;;;;;;;5067685;28;20061;-62
2023/03/21 11:20:08;;;;;;;12.30;6.47;;;;;;;;;;5060429;28;20559;-62
2023/03/21 11:22:38;;;;;;;11.05;6.45;;;;;;;;;;5059920;28;20049;-62
2023/03/21 11:25:06;;;;;;;20.13;7.72;;;;;;;;;;5058864;28;20045;-62
2023/03/21 11:27:33;;;;;;;12.77;6.07;;;;;;;;;;5058153;28;20053;-61
2023/03/21 11:30:00;;;;;;;11.38;6.72;;;;;;;;;;5062351;28;20080;-62
2023/03/21 11:32:34;;;;;;;12.38;6.53;;;;;;;;;;5063500;28;20097;-59
2023/03/21 11:35:22;;;;;;;15.32;6.53;;;;;;;;;;5059936;28;20053;-61
2023/03/21 11:37:53;;;;;;;14.55;6.57;;;;;;;;;;5061214;28;20045;-60
2023/03/21 11:40:25;;;;;;;12.48;6.57;;;;;;;;;;5062206;28;20056;-61
2023/03/21 11:42:56;;;;;;;10.27;6.43;;;;;;;;;;5062222;28;20053;-61
2023/03/21 11:45:45;;;;;;;11.05;6.05;;;;;;;;;;5061946;28;20045;-61
2023/03/21 11:48:12;;;;;;;11.10;6.28;;;;;;;;;;5060882;28;22102;-61
2023/03/21 11:50:40;;;;;;;16.05;7.55;;;;;;;;;;5063107;28;20060;-61
2023/03/21 11:53:06;;;;;;;11.52;6.28;;;;;;;;;;5061643;28;20048;-61
2023/03/21 11:55:35;;;;;;;11.60;6.70;;;;;;;;;;5061175;28;20049;-60
2023/03/21 11:58:05;;;;;;;12.70;5.90;;;;;;;;;;5061791;28;20166;-60
2023/03/21 12:00:47;;;;;;;16.85;6.65;;;;;;;;;;5061818;28;20053;-60
2023/03/21 12:03:20;;;;;;;10.55;6.07;;;;;;;;;;5061860;28;20099;-60
2023/03/21 12:05:52;;;;;;;17.50;6.82;;;;;;;;;;5059969;28;20172;-61
2023/03/21 12:08:21;;;;;;;17.40;6.82;;;;;;;;;;5062147;28;20373;-61
2023/03/21 12:10:56;;;;;;;13.25;6.28;;;;;;;;;;5060367;28;20067;-60
2023/03/21 12:13:32;;;;;;;9.73;5.90;;;;;;;;;;5066974;28;20479;-61
2023/03/21 12:15:59;;;;;;;11.77;6.97;;;;;;;;;;5062605;28;20515;-60
2023/03/21 12:18:34;;;;;;;10.57;6.30;;;;;;;;;;5058645;28;20125;-62
2023/03/21 12:21:05;;;;;;;11.45;6.53;;;;;;;;;;5058472;28;20085;-61
2023/03/21 12:23:46;;;;;;;13.23;6.80;;;;;;;;;;5062753;28;20053;-61
2023/03/21 12:26:22;;;;;;;11.60;5.88;;;;;;;;;;5065472;28;20079;-61
2023/03/21 12:28:51;;;;;;;11.27;6.05;;;;;;;;;;5062253;28;20475;-59
2023/03/21 12:31:23;;;;;;;13.52;6.47;;;;;;;;;;5060341;28;20064;-61
2023/03/21 12:33:50;;;;;;;11.45;6.30;;;;;;;;;;5066966;28;20128;-60
2023/03/21 12:36:35;;;;;;;12.60;6.45;;;;;;;;;;5062524;28;20049;-59
2023/03/21 12:39:11;;;;;;;15.70;6.07;;;;;;;;;;5057905;28;20053;-60
2023/03/21 12:41:48;;;;;;;8.85;6.03;;;;;;;;;;5062555;28;20087;-59
2023/03/21 12:44:16;;;;;;;10.68;6.43;;;;;;;;;;5058252;28;20519;-59
2023/03/21 12:46:47;;;;;;;16.08;7.63;;;;;;;;;;5059585;28;20053;-60
2023/03/21 12:49:17;;;;;;;13.45;6.97;;;;;;;;;;5060379;28;20067;-59
2023/03/21 12:51:46;;;;;;;10.82;6.28;;;;;;;;;;5061462;28;20534;-60
2023/03/21 12:54:12;;;;;;;14.60;7.07;;;;;;;;;;5064765;28;20801;-60
2023/03/21 12:56:54;;;;;;;13.45;7.53;;;;;;;;;;5062010;28;20045;-60
2023/03/21 12:59:24;;;;;;;13.85;8.15;;;;;;;;;;5060204;28;20119;-59
2023/03/21 13:01:52;;;;;;;14.38;7.53;;;;;;;;;;5060050;28;20434;-61
2023/03/21 13:04:30;;;;;;;23.17;8.52;;;;;;;;;;5058481;28;20045;-60
2023/03/21 13:06:59;;;;;;;16.20;8.65;;;;;;;;;;5054874;28;20103;-61
2023/03/21 13:09:39;;;;;;;14.85;7.68;;;;;;;;;;5063039;28;20057;-61
2023/03/21 13:12:38;;;;;;;14.05;8.57;;;;;;;;;;5064031;28;20060;-60
2023/03/21 13:15:07;;;;;;;13.07;7.28;;;;;;;;;;5021137;28;21129;-60
2023/03/21 13:17:57;;;;;;;12.75;7.95;;;;;;;;;;5062046;28;20057;-61
2023/03/21 13:20:27;;;;;;;9.48;6.85;;;;;;;;;;5060632;28;20051;-61
2023/03/21 13:22:54;;;;;;;10.85;6.60;;;;;;;;;;5064395;28;20541;-61
2023/03/21 13:25:21;;;;;;;11.57;6.15;;;;;;;;;;5062539;28;20818;-61
2023/03/21 13:27:52;;;;;;;8.90;5.82;;;;;;;;;;5065485;28;20426;-60
2023/03/21 13:30:24;;;;;;;8.10;5.32;;;;;;;;;;5062074;28;20140;-61
2023/03/21 13:33:01;;;;;;;8.68;5.25;;;;;;;;;;5056402;28;20333;-60
2023/03/21 13:35:36;;;;;;;9.32;4.90;;;;;;;;;;5061705;28;20526;-61
2023/03/21 13:38:03;;;;;;;;;;;;;;;;;;5065254;28;20582;-60
2023/03/21 13:40:37;;;;;;;11.10;6.30;;;;;;;;;;5063247;28;44488;-60
2023/03/21 13:43:04;;;;;;;9.45;6.30;;;;;;;;;;5056708;28;20064;-60
2023/03/21 13:45:43;;;;;;;6.88;5.85;;;;;;;;;;5062588;28;20139;-61
2023/03/21 13:48:24;;;;;;;8.77;7.40;;;;;;;;;;5061586;28;20061;-60
2023/03/21 13:50:53;;;;;;;11.00;6.72;;;;;;;;;;5070288;28;20044;-62
2023/03/21 13:53:21;;;;;;;7.93;6.72;;;;;;;;;;5061471;28;20061;-60
2023/03/21 13:55:57;;;;;;;12.57;6.47;;;;;;;;;;5061442;28;20049;-59
2023/03/21 13:58:30;;;;;;;7.90;5.90;;;;;;;;;;5062920;28;20052;-60
2023/03/21 14:01:11;;;;;;;10.75;6.78;;;;;;;;;;5060311;28;20593;-59
2023/03/21 14:03:38;;;;;;;12.85;6.90;;;;;;;;;;5060459;28;20394;-61
2023/03/21 14:06:05;;;;;;;7.57;6.03;;;;;;;;;;5057389;28;20053;-60
2023/03/21 14:08:34;;;;;;;10.63;6.55;;;;;;;;;;5058700;28;20083;-61
2023/03/21 14:11:04;;;;;;;12.20;7.25;;;;;;;;;;5078170;28;20053;-59
2023/03/21 14:13:32;;;;;;;10.10;6.80;;;;;;;;;;5063504;28;20156;-59
2023/03/21 14:16:14;;;;;;;13.52;7.05;;;;;;;;;;5061460;28;20056;-59
2023/03/21 14:18:42;;;;;;;8.90;6.57;;;;;;;;;;5062860;28;20057;-60
2023/03/21 14:21:24;;;;;;;12.85;6.97;;;;;;;;;;5065226;28;20395;-60
2023/03/21 14:23:57;;;;;;;10.80;6.90;;;;;;;;;;5062045;28;20053;-59
2023/03/21 14:26:26;;;;;;;12.13;7.10;;;;;;;;;;5055549;28;20336;-59
2023/03/21 14:28:52;;;;;;;10.82;7.28;;;;;;;;;;5064254;28;20677;-59
2023/03/21 14:31:19;;;;;;;12.02;7.00;;;;;;;;;;5070363;28;21073;-59
2023/03/21 14:33:52;;;;;;;11.63;7.30;;;;;;;;;;5046103;28;20504;-61
2023/03/21 14:36:20;;;;;;;12.13;7.35;;;;;;;;;;5043092;28;20531;-59
2023/03/21 14:39:13;;;;;;;12.38;8.15;;;;;;;;;;5044779;28;20526;-61
2023/03/21 14:41:45;;;;;;;11.20;8.13;;;;;;;;;;5043061;28;20500;-60